sensor_id;sensor_type;location;lat;lon;timestamp;pressure;altitude;pressure_sealevel;temperature;humidity
141;BME280;65;48.778;9.160;2023-02-14T00:00:42;100409.72;;;0.15;100.00
141;BME280;65;48.778;9.160;2023-02-14T00:03:07;100400.38;;;0.29;100.00
141;BME280;65;48.778;9.160;2023-02-14T00:05:33;100391.94;;;0.49;100.00
141;BME280;65;48.778;9.160;2023-02-14T00:07:58;100383.34;;;0.53;100.00
141;BME280;65;48.778;9.160;2023-02-14T00:10:24;100387.91;;;0.69;100.00
141;BME280;65;48.778;9.160;2023-02-14T00:12:49;100381.84;;;0.70;100.00
141;BME280;65;48.778;9.160;2023-02-14T00:15:15;100383.53;;;0.67;100.00
141;BME280;65;48.778;9.160;2023-02-14T00:17:50;100383.66;;;0.77;100.00
141;BME280;65;48.778;9.160;2023-02-14T00:20:15;100388.00;;;0.78;100.00
141;BME280;65;48.778;9.160;2023-02-14T00:22:41;100390.63;;;0.81;100.00
141;BME280;65;48.778;9.160;2023-02-14T00:25:06;100388.03;;;0.81;100.00
141;BME280;65;48.778;9.160;2023-02-14T00:27:32;100388.97;;;0.86;100.00
141;BME280;65;48.778;9.160;2023-02-14T00:29:57;100382.94;;;0.90;100.00
141;BME280;65;48.778;9.160;2023-02-14T00:32:29;100388.03;;;0.81;100.00
141;BME280;65;48.778;9.160;2023-02-14T00:34:55;100389.69;;;0.75;100.00
141;BME280;65;48.778;9.160;2023-02-14T00:37:21;100396.69;;;0.80;100.00
141;BME280;65;48.778;9.160;2023-02-14T00:39:47;100399.19;;;0.71;100.00
141;BME280;65;48.778;9.160;2023-02-14T00:42:12;100398.28;;;0.66;100.00
141;BME280;65;48.778;9.160;2023-02-14T00:44:39;100389.56;;;0.62;100.00
141;BME280;65;48.778;9.160;2023-02-14T00:47:05;100386.78;;;0.52;100.00
141;BME280;65;48.778;9.160;2023-02-14T00:49:30;100393.59;;;0.42;100.00
141;BME280;65;48.778;9.160;2023-02-14T00:51:56;100390.13;;;0.42;100.00
141;BME280;65;48.778;9.160;2023-02-14T00:57:38;100391.72;;;0.30;100.00
141;BME280;65;48.778;9.160;2023-02-14T01:00:04;100397.84;;;0.34;100.00
141;BME280;65;48.778;9.160;2023-02-14T01:02:29;100397.78;;;0.31;100.00
141;BME280;65;48.778;9.160;2023-02-14T01:04:55;100400.28;;;0.23;100.00
141;BME280;65;48.778;9.160;2023-02-14T01:07:20;100399.31;;;0.15;100.00
141;BME280;65;48.778;9.160;2023-02-14T01:09:47;100399.22;;;0.09;100.00
141;BME280;65;48.778;9.160;2023-02-14T01:12:12;100397.50;;;0.10;100.00
141;BME280;65;48.778;9.160;2023-02-14T01:14:38;100397.56;;;0.14;100.00
141;BME280;65;48.778;9.160;2023-02-14T01:17:03;100397.59;;;0.16;100.00
141;BME280;65;48.778;9.160;2023-02-14T01:19:29;100401.94;;;0.17;100.00
141;BME280;65;48.778;9.160;2023-02-14T01:21:54;100401.19;;;0.25;100.00
141;BME280;65;48.778;9.160;2023-02-14T01:24:20;100396.88;;;0.27;100.00
141;BME280;65;48.778;9.160;2023-02-14T01:26:45;100398.53;;;0.22;100.00
141;BME280;65;48.778;9.160;2023-02-14T01:29:11;100396.75;;;0.18;100.00
141;BME280;65;48.778;9.160;2023-02-14T01:31:36;100401.97;;;0.18;100.00
141;BME280;65;48.778;9.160;2023-02-14T01:34:02;100391.47;;;0.12;100.00
141;BME280;65;48.778;9.160;2023-02-14T01:36:31;100387.03;;;0.05;100.00
141;BME280;65;48.778;9.160;2023-02-14T01:38:59;100389.56;;;0.01;100.00
141;BME280;65;48.778;9.160;2023-02-14T01:41:28;100379.13;;;-0.01;100.00
141;BME280;65;48.778;9.160;2023-02-14T01:44:06;100380.78;;;-0.06;100.00
141;BME280;65;48.778;9.160;2023-02-14T01:46:34;100379.09;;;-0.03;100.00
141;BME280;65;48.778;9.160;2023-02-14T01:49:04;100381.59;;;-0.10;100.00
141;BME280;65;48.778;9.160;2023-02-14T01:51:32;100383.31;;;-0.11;100.00
141;BME280;65;48.778;9.160;2023-02-14T01:53:59;100378.91;;;-0.16;100.00
141;BME280;65;48.778;9.160;2023-02-14T01:56:38;100382.28;;;-0.22;100.00
141;BME280;65;48.778;9.160;2023-02-14T01:59:07;100396.16;;;-0.20;100.00
141;BME280;65;48.778;9.160;2023-02-14T02:01:33;100384.16;;;-0.13;100.00
141;BME280;65;48.778;9.160;2023-02-14T02:04:06;100391.16;;;-0.08;100.00
141;BME280;65;48.778;9.160;2023-02-14T02:06:39;100385.03;;;-0.11;100.00
141;BME280;65;48.778;9.160;2023-02-14T02:09:43;100385.00;;;-0.14;100.00
141;BME280;65;48.778;9.160;2023-02-14T02:12:11;100379.69;;;-0.22;100.00
141;BME280;65;48.778;9.160;2023-02-14T02:14:36;100384.06;;;-0.19;100.00
141;BME280;65;48.778;9.160;2023-02-14T02:39:01;100378.84;;;-0.19;100.00
141;BME280;65;48.778;9.160;2023-02-14T02:41:54;100380.56;;;-0.21;100.00
141;BME280;65;48.778;9.160;2023-02-14T02:47:32;100369.13;;;-0.33;100.00
141;BME280;65;48.778;9.160;2023-02-14T02:52:58;100369.13;;;-0.33;100.00
141;BME280;65;48.778;9.160;2023-02-14T02:55:55;100372.72;;;-0.24;100.00
141;BME280;65;48.778;9.160;2023-02-14T03:01:29;100376.31;;;-0.16;100.00
141;BME280;65;48.778;9.160;2023-02-14T03:04:03;100372.75;;;-0.21;100.00
141;BME280;65;48.778;9.160;2023-02-14T03:06:49;100371.94;;;-0.19;100.00
141;BME280;65;48.778;9.160;2023-02-14T03:14:59;100379.59;;;-0.28;100.00
141;BME280;65;48.778;9.160;2023-02-14T03:23:07;100381.25;;;-0.33;100.00
141;BME280;65;48.778;9.160;2023-02-14T03:26:12;100387.47;;;-0.23;100.00
141;BME280;65;48.778;9.160;2023-02-14T03:36:13;100388.34;;;-0.21;100.00
141;BME280;65;48.778;9.160;2023-02-14T03:38:47;100385.72;;;-0.24;100.00
141;BME280;65;48.778;9.160;2023-02-14T03:41:19;100376.06;;;-0.32;100.00
141;BME280;65;48.778;9.160;2023-02-14T03:43:56;100377.84;;;-0.29;100.00
141;BME280;65;48.778;9.160;2023-02-14T03:46:31;100381.25;;;-0.33;100.00
141;BME280;65;48.778;9.160;2023-02-14T03:49:03;100381.19;;;-0.38;100.00
141;BME280;65;48.778;9.160;2023-02-14T03:51:31;100374.16;;;-0.43;100.00
141;BME280;65;48.778;9.160;2023-02-14T03:53:59;100375.81;;;-0.48;100.00
141;BME280;65;48.778;9.160;2023-02-14T03:56:48;100374.03;;;-0.51;100.00
141;BME280;65;48.778;9.160;2023-02-14T03:59:25;100373.19;;;-0.50;100.00
141;BME280;65;48.778;9.160;2023-02-14T04:04:19;100363.69;;;-0.48;100.00
141;BME280;65;48.778;9.160;2023-02-14T04:06:45;100368.00;;;-0.50;100.00
141;BME280;65;48.778;9.160;2023-02-14T04:09:11;100367.94;;;-0.53;100.00
141;BME280;65;48.778;9.160;2023-02-14T04:11:36;100374.88;;;-0.52;100.00
141;BME280;65;48.778;9.160;2023-02-14T04:14:03;100373.22;;;-0.48;100.00
141;BME280;65;48.778;9.160;2023-02-14T04:16:29;100373.25;;;-0.45;100.00
141;BME280;65;48.778;9.160;2023-02-14T04:18:54;100362.81;;;-0.48;100.00
141;BME280;65;48.778;9.160;2023-02-14T04:21:38;100367.09;;;-0.52;100.00
141;BME280;65;48.778;9.160;2023-02-14T04:24:04;100367.91;;;-0.54;100.00
141;BME280;65;48.778;9.160;2023-02-14T04:26:29;100366.16;;;-0.57;100.00
141;BME280;65;48.778;9.160;2023-02-14T04:29:26;100363.63;;;-0.52;100.00
141;BME280;65;48.778;9.160;2023-02-14T04:31:51;100355.88;;;-0.49;100.00
141;BME280;65;48.778;9.160;2023-02-14T04:34:17;100358.47;;;-0.49;100.00
141;BME280;65;48.778;9.160;2023-02-14T04:36:42;100364.50;;;-0.52;100.00
141;BME280;65;48.778;9.160;2023-02-14T04:39:07;100362.81;;;-0.50;100.00
141;BME280;65;48.778;9.160;2023-02-14T04:41:33;100362.84;;;-0.47;100.00
141;BME280;65;48.778;9.160;2023-02-14T04:43:58;100354.13;;;-0.50;100.00
141;BME280;65;48.778;9.160;2023-02-14T04:46:23;100360.19;;;-0.51;100.00
141;BME280;65;48.778;9.160;2023-02-14T04:48:49;100354.91;;;-0.56;100.00
141;BME280;65;48.778;9.160;2023-02-14T04:51:35;100356.53;;;-0.61;100.00
141;BME280;65;48.778;9.160;2023-02-14T04:54:01;100358.22;;;-0.63;100.00
141;BME280;65;48.778;9.160;2023-02-14T04:56:26;100358.25;;;-0.61;100.00
141;BME280;65;48.778;9.160;2023-02-14T04:58:53;100359.94;;;-0.64;100.00
141;BME280;65;48.778;9.160;2023-02-14T05:01:18;100370.38;;;-0.62;100.00
141;BME280;65;48.778;9.160;2023-02-14T05:03:43;100361.66;;;-0.64;100.00
141;BME280;65;48.778;9.160;2023-02-14T05:06:09;100364.28;;;-0.63;100.00
141;BME280;65;48.778;9.160;2023-02-14T05:08:34;100365.97;;;-0.66;100.00
141;BME280;65;48.778;9.160;2023-02-14T05:10:59;100353.84;;;-0.66;100.00
141;BME280;65;48.778;9.160;2023-02-14T05:13:43;100358.09;;;-0.71;100.00
141;BME280;65;48.778;9.160;2023-02-14T05:16:27;100351.13;;;-0.75;100.00
141;BME280;65;48.778;9.160;2023-02-14T05:18:52;100353.72;;;-0.73;100.00
141;BME280;65;48.778;9.160;2023-02-14T05:21:18;100356.44;;;-0.67;100.00
141;BME280;65;48.778;9.160;2023-02-14T05:23:43;100358.97;;;-0.70;100.00
141;BME280;65;48.778;9.160;2023-02-14T05:26:09;100356.31;;;-0.75;100.00
141;BME280;65;48.778;9.160;2023-02-14T05:28:35;100355.47;;;-0.72;100.00
141;BME280;65;48.778;9.160;2023-02-14T05:31:00;100356.28;;;-0.76;100.00
141;BME280;65;48.778;9.160;2023-02-14T05:33:26;100359.81;;;-0.71;100.00
141;BME280;65;48.778;9.160;2023-02-14T05:35:51;100356.34;;;-0.73;100.00
141;BME280;65;48.778;9.160;2023-02-14T05:38:17;100365.88;;;-0.72;100.00
141;BME280;65;48.778;9.160;2023-02-14T05:40:43;100351.16;;;-0.72;100.00
141;BME280;65;48.778;9.160;2023-02-14T05:43:09;100362.34;;;-0.76;100.00
141;BME280;65;48.778;9.160;2023-02-14T05:45:35;100358.06;;;-0.74;100.00
141;BME280;65;48.778;9.160;2023-02-14T05:48:00;100358.06;;;-0.74;100.00
141;BME280;65;48.778;9.160;2023-02-14T05:50:26;100366.66;;;-0.76;100.00
141;BME280;65;48.778;9.160;2023-02-14T05:52:51;100361.66;;;-0.66;100.00
141;BME280;65;48.778;9.160;2023-02-14T05:55:17;100368.78;;;-0.54;100.00
141;BME280;65;48.778;9.160;2023-02-14T05:57:42;100360.19;;;-0.51;100.00
141;BME280;65;48.778;9.160;2023-02-14T06:00:08;100370.88;;;-0.32;100.00
141;BME280;65;48.778;9.160;2023-02-14T06:02:34;100370.78;;;-0.38;100.00
141;BME280;65;48.778;9.160;2023-02-14T06:05:00;100372.53;;;-0.37;100.00
141;BME280;65;48.778;9.160;2023-02-14T06:07:25;100374.22;;;-0.39;100.00
141;BME280;65;48.778;9.160;2023-02-14T06:09:50;100381.19;;;-0.36;100.00
141;BME280;65;48.778;9.160;2023-02-14T06:12:16;100380.34;;;-0.35;100.00
141;BME280;65;48.778;9.160;2023-02-14T06:14:41;100371.63;;;-0.40;100.00
141;BME280;65;48.778;9.160;2023-02-14T06:17:08;100380.22;;;-0.43;100.00
141;BME280;65;48.778;9.160;2023-02-14T06:19:34;100380.31;;;-0.37;100.00
141;BME280;65;48.778;9.160;2023-02-14T06:22:00;100380.31;;;-0.37;100.00
141;BME280;65;48.778;9.160;2023-02-14T06:24:35;100380.22;;;-0.43;100.00
141;BME280;65;48.778;9.160;2023-02-14T06:27:07;100386.19;;;-0.48;100.00
141;BME280;65;48.778;9.160;2023-02-14T06:29:32;100387.06;;;-0.49;100.00
141;BME280;65;48.778;9.160;2023-02-14T06:31:57;100383.50;;;-0.54;100.00
141;BME280;65;48.778;9.160;2023-02-14T06:34:29;100391.31;;;-0.53;100.00
141;BME280;65;48.778;9.160;2023-02-14T06:36:55;100384.28;;;-0.58;100.00
141;BME280;65;48.778;9.160;2023-02-14T06:39:20;100392.91;;;-0.59;100.00
141;BME280;65;48.778;9.160;2023-02-14T06:41:46;100390.59;;;-0.44;100.00
141;BME280;65;48.778;9.160;2023-02-14T06:44:11;100388.03;;;-0.41;100.00
141;BME280;65;48.778;9.160;2023-02-14T06:46:36;100385.66;;;-0.27;100.00
141;BME280;65;48.778;9.160;2023-02-14T06:49:02;100384.13;;;-0.15;100.00
141;BME280;65;48.778;9.160;2023-02-14T06:51:27;100387.63;;;-0.11;100.00
141;BME280;65;48.778;9.160;2023-02-14T06:54:16;100389.44;;;-0.07;100.00
141;BME280;65;48.778;9.160;2023-02-14T06:56:42;100386.03;;;-0.03;100.00
141;BME280;65;48.778;9.160;2023-02-14T06:59:07;100387.69;;;-0.08;100.00
141;BME280;65;48.778;9.160;2023-02-14T07:01:33;100396.38;;;-0.06;100.00
141;BME280;65;48.778;9.160;2023-02-14T07:03:58;100389.53;;;-0.01;100.00
141;BME280;65;48.778;9.160;2023-02-14T07:06:24;100386.03;;;-0.03;100.00
141;BME280;65;48.778;9.160;2023-02-14T07:09:09;100382.56;;;-0.04;100.00
141;BME280;65;48.778;9.160;2023-02-14T07:11:35;100373.03;;;-0.03;100.00
141;BME280;65;48.778;9.160;2023-02-14T07:14:00;100377.41;;;-0.01;100.00
141;BME280;65;48.778;9.160;2023-02-14T07:16:26;100381.84;;;0.05;100.00
141;BME280;65;48.778;9.160;2023-02-14T07:18:51;100381.00;;;0.06;100.00
141;BME280;65;48.778;9.160;2023-02-14T07:21:16;100386.31;;;0.15;100.00
141;BME280;65;48.778;9.160;2023-02-14T07:23:42;100380.41;;;0.27;100.00
141;BME280;65;48.778;9.160;2023-02-14T07:26:10;100373.47;;;0.27;100.00
141;BME280;65;48.778;9.160;2023-02-14T07:28:36;100372.69;;;0.35;100.00
141;BME280;65;48.778;9.160;2023-02-14T07:31:01;100376.28;;;0.43;100.00
141;BME280;65;48.778;9.160;2023-02-14T07:33:27;100369.34;;;0.43;100.00
141;BME280;65;48.778;9.160;2023-02-14T07:35:53;100375.50;;;0.50;100.00
141;BME280;65;48.778;9.160;2023-02-14T07:38:18;100370.34;;;0.54;100.00
141;BME280;65;48.778;9.160;2023-02-14T07:40:44;100373.94;;;0.61;100.00
141;BME280;65;48.778;9.160;2023-02-14T07:43:09;100376.56;;;0.64;100.00
141;BME280;65;48.778;9.160;2023-02-14T07:45:35;100380.13;;;0.74;100.00
141;BME280;65;48.778;9.160;2023-02-14T07:48:00;100378.47;;;0.80;100.00
141;BME280;65;48.778;9.160;2023-02-14T07:50:28;100382.00;;;0.84;100.00
141;BME280;65;48.778;9.160;2023-02-14T07:52:54;100382.81;;;0.81;100.00
141;BME280;65;48.778;9.160;2023-02-14T07:55:21;100379.38;;;0.82;100.00
141;BME280;65;48.778;9.160;2023-02-14T07:57:49;100367.31;;;0.90;100.00
141;BME280;65;48.778;9.160;2023-02-14T08:00:15;100369.13;;;0.99;100.00
141;BME280;65;48.778;9.160;2023-02-14T08:02:41;100367.47;;;1.07;100.00
141;BME280;65;48.778;9.160;2023-02-14T08:05:06;100371.06;;;1.17;100.00
141;BME280;65;48.778;9.160;2023-02-14T08:07:32;100361.56;;;1.22;100.00
141;BME280;65;48.778;9.160;2023-02-14T08:09:57;100361.59;;;1.25;100.00
141;BME280;65;48.778;9.160;2023-02-14T08:12:22;100362.50;;;1.29;100.00
141;BME280;65;48.778;9.160;2023-02-14T08:15:07;100357.31;;;1.30;100.00
141;BME280;65;48.778;9.160;2023-02-14T08:17:51;100356.53;;;1.42;100.00
141;BME280;65;48.778;9.160;2023-02-14T08:20:16;100360.13;;;1.57;100.00
141;BME280;65;48.778;9.160;2023-02-14T08:22:42;100360.22;;;1.68;100.00
141;BME280;65;48.778;9.160;2023-02-14T08:25:07;100358.59;;;1.81;100.00
141;BME280;65;48.778;9.160;2023-02-14T08:27:32;100357.75;;;1.83;100.00
141;BME280;65;48.778;9.160;2023-02-14T08:29:58;100361.25;;;1.88;100.00
141;BME280;65;48.778;9.160;2023-02-14T08:32:23;100361.28;;;1.92;100.00
141;BME280;65;48.778;9.160;2023-02-14T08:34:49;100357.78;;;1.91;100.00
141;BME280;65;48.778;9.160;2023-02-14T08:37:14;100359.50;;;1.86;100.00
141;BME280;65;48.778;9.160;2023-02-14T08:39:39;100363.84;;;1.87;100.00
141;BME280;65;48.778;9.160;2023-02-14T08:42:05;100358.63;;;1.87;100.00
141;BME280;65;48.778;9.160;2023-02-14T08:44:30;100349.13;;;1.94;100.00
141;BME280;65;48.778;9.160;2023-02-14T08:46:56;100351.75;;;1.98;100.00
141;BME280;65;48.778;9.160;2023-02-14T08:49:46;100356.13;;;2.05;100.00
141;BME280;65;48.778;9.160;2023-02-14T08:52:15;100353.56;;;2.14;100.00
141;BME280;65;48.778;9.160;2023-02-14T08:54:40;100350.13;;;2.18;100.00
141;BME280;65;48.778;9.160;2023-02-14T08:57:06;100349.28;;;2.24;100.00
141;BME280;65;48.778;9.160;2023-02-14T08:59:31;100347.63;;;2.40;99.90
141;BME280;65;48.778;9.160;2023-02-14T09:01:56;100344.19;;;2.47;99.05
141;BME280;65;48.778;9.160;2023-02-14T09:04:22;100350.31;;;2.55;98.64
141;BME280;65;48.778;9.160;2023-02-14T09:06:47;100343.38;;;2.65;97.93
141;BME280;65;48.778;9.160;2023-02-14T09:09:12;100343.38;;;2.68;96.80
141;BME280;65;48.778;9.160;2023-02-14T09:11:38;100346.91;;;2.79;97.30
141;BME280;65;48.778;9.160;2023-02-14T09:14:03;100343.50;;;3.01;96.40
141;BME280;65;48.778;9.160;2023-02-14T09:16:29;100351.34;;;3.03;96.66
141;BME280;65;48.778;9.160;2023-02-14T09:18:54;100349.63;;;3.25;95.52
141;BME280;65;48.778;9.160;2023-02-14T09:21:23;100344.41;;;3.26;95.13
141;BME280;65;48.778;9.160;2023-02-14T09:23:50;100347.88;;;3.34;94.38
141;BME280;65;48.778;9.160;2023-02-14T09:26:16;100340.91;;;3.41;94.30
141;BME280;65;48.778;9.160;2023-02-14T09:28:42;100333.94;;;3.43;93.43
141;BME280;65;48.778;9.160;2023-02-14T09:31:14;100329.63;;;3.49;93.00
141;BME280;65;48.778;9.160;2023-02-14T09:33:40;100325.25;;;3.53;93.03
141;BME280;65;48.778;9.160;2023-02-14T09:36:24;100325.25;;;3.67;92.08
141;BME280;65;48.778;9.160;2023-02-14T09:39:08;100320.88;;;3.70;91.99
141;BME280;65;48.778;9.160;2023-02-14T09:44:20;100316.50;;;3.85;92.00
141;BME280;65;48.778;9.160;2023-02-14T09:46:52;100314.72;;;3.94;92.09
141;BME280;65;48.778;9.160;2023-02-14T09:49:30;100311.22;;;4.03;90.57
141;BME280;65;48.778;9.160;2023-02-14T09:51:57;100307.75;;;4.10;89.12
141;BME280;65;48.778;9.160;2023-02-14T09:54:26;100309.47;;;4.14;89.69
141;BME280;65;48.778;9.160;2023-02-14T10:02:32;100308.47;;;4.41;87.95
141;BME280;65;48.778;9.160;2023-02-14T10:07:52;100290.97;;;4.55;88.11
141;BME280;65;48.778;9.160;2023-02-14T10:10:36;100297.91;;;4.65;86.26
141;BME280;65;48.778;9.160;2023-02-14T10:15:42;100296.00;;;4.90;86.23
141;BME280;65;48.778;9.160;2023-02-14T10:20:41;100293.31;;;5.01;85.93
141;BME280;65;48.778;9.160;2023-02-14T10:25:54;100295.94;;;5.02;84.88
141;BME280;65;48.778;9.160;2023-02-14T10:28:28;100284.47;;;5.20;84.93
141;BME280;65;48.778;9.160;2023-02-14T10:34:02;100276.47;;;5.35;83.45
141;BME280;65;48.778;9.160;2023-02-14T10:39:21;100278.94;;;5.52;82.89
141;BME280;65;48.778;9.160;2023-02-14T10:47:09;100256.00;;;5.74;80.95
141;BME280;65;48.778;9.160;2023-02-14T10:52:31;100256.72;;;5.93;79.91
141;BME280;65;48.778;9.160;2023-02-14T10:55:04;100257.47;;;6.02;79.88
141;BME280;65;48.778;9.160;2023-02-14T10:57:36;100250.31;;;6.17;78.69
141;BME280;65;48.778;9.160;2023-02-14T11:00:24;100256.31;;;6.26;78.63
141;BME280;65;48.778;9.160;2023-02-14T11:02:55;100254.41;;;6.39;77.66
141;BME280;65;48.778;9.160;2023-02-14T11:05:29;100248.28;;;6.40;78.04
141;BME280;65;48.778;9.160;2023-02-14T11:07:55;100245.69;;;6.39;77.97
141;BME280;65;48.778;9.160;2023-02-14T11:10:30;100236.66;;;6.56;76.57
141;BME280;65;48.778;9.160;2023-02-14T11:12:56;100233.97;;;6.61;76.75
141;BME280;65;48.778;9.160;2023-02-14T11:15:45;100227.91;;;6.57;76.36
141;BME280;65;48.778;9.160;2023-02-14T11:18:25;100224.31;;;6.63;75.80
141;BME280;65;48.778;9.160;2023-02-14T11:21:04;100229.41;;;6.74;76.22
141;BME280;65;48.778;9.160;2023-02-14T11:23:36;100224.72;;;6.92;75.12
141;BME280;65;48.778;9.160;2023-02-14T11:26:03;100225.78;;;6.82;75.51
141;BME280;65;48.778;9.160;2023-02-14T11:28:29;100215.22;;;6.84;75.28
141;BME280;65;48.778;9.160;2023-02-14T11:30:55;100216.75;;;7.00;74.14
141;BME280;65;48.778;9.160;2023-02-14T11:33:33;100209.72;;;7.02;73.70
141;BME280;65;48.778;9.160;2023-02-14T11:36:02;100212.06;;;7.17;73.27
141;BME280;65;48.778;9.160;2023-02-14T11:38:34;100199.69;;;7.24;72.58
141;BME280;65;48.778;9.160;2023-02-14T11:41:03;100205.88;;;7.21;73.24
141;BME280;65;48.778;9.160;2023-02-14T11:43:34;100196.13;;;7.26;72.98
141;BME280;65;48.778;9.160;2023-02-14T11:48:38;100195.19;;;7.30;73.01
141;BME280;65;48.778;9.160;2023-02-14T11:51:09;100188.81;;;7.44;72.62
141;BME280;65;48.778;9.160;2023-02-14T11:56:06;100187.47;;;7.69;71.05
141;BME280;65;48.778;9.160;2023-02-14T11:58:55;100183.28;;;7.59;71.45
141;BME280;65;48.778;9.160;2023-02-14T12:01:30;100175.03;;;7.77;69.95
141;BME280;65;48.778;9.160;2023-02-14T12:04:02;100177.34;;;7.92;70.91
141;BME280;65;48.778;9.160;2023-02-14T12:06:31;100166.56;;;8.05;70.61
141;BME280;65;48.778;9.160;2023-02-14T12:14:27;100160.00;;;8.24;68.28
141;BME280;65;48.778;9.160;2023-02-14T12:17:10;100160.66;;;8.35;68.45
141;BME280;65;48.778;9.160;2023-02-14T12:22:56;100149.53;;;8.61;66.36
141;BME280;65;48.778;9.160;2023-02-14T12:25:26;100158.09;;;8.71;66.46
141;BME280;65;48.778;9.160;2023-02-14T12:28:04;100148.50;;;8.67;66.75
141;BME280;65;48.778;9.160;2023-02-14T12:30:34;100146.72;;;8.69;66.89
141;BME280;65;48.778;9.160;2023-02-14T12:33:00;100144.66;;;8.81;65.54
141;BME280;65;48.778;9.160;2023-02-14T12:47:00;100129.66;;;8.83;65.60
141;BME280;65;48.778;9.160;2023-02-14T12:49:49;100124.94;;;8.96;64.57
141;BME280;65;48.778;9.160;2023-02-14T13:10:23;100094.84;;;9.37;63.84
141;BME280;65;48.778;9.160;2023-02-14T13:13:20;100091.94;;;9.46;63.50
141;BME280;65;48.778;9.160;2023-02-14T13:16:02;100092.56;;;9.56;63.59
141;BME280;65;48.778;9.160;2023-02-14T13:18:46;100083.28;;;9.72;62.79
141;BME280;65;48.778;9.160;2023-02-14T13:21:21;100079.19;;;9.62;63.37
141;BME280;65;48.778;9.160;2023-02-14T13:23:48;100074.34;;;9.76;63.18
141;BME280;65;48.778;9.160;2023-02-14T13:26:23;100074.25;;;9.79;62.04
141;BME280;65;48.778;9.160;2023-02-14T13:29:18;100071.81;;;10.03;62.16
141;BME280;65;48.778;9.160;2023-02-14T13:31:45;100073.69;;;9.99;61.21
141;BME280;65;48.778;9.160;2023-02-14T13:36:58;100073.78;;;9.96;62.36
141;BME280;65;48.778;9.160;2023-02-14T13:39:44;100071.00;;;10.01;62.17
141;BME280;65;48.778;9.160;2023-02-14T13:42:11;100067.44;;;10.02;61.98
141;BME280;65;48.778;9.160;2023-02-14T13:44:45;100059.47;;;10.03;61.70
141;BME280;65;48.778;9.160;2023-02-14T13:47:24;100067.41;;;10.03;62.11
141;BME280;65;48.778;9.160;2023-02-14T13:49:58;100065.00;;;9.96;62.65
141;BME280;65;48.778;9.160;2023-02-14T13:52:57;100064.91;;;9.99;62.10
141;BME280;65;48.778;9.160;2023-02-14T13:55:25;100059.38;;;10.06;61.85
141;BME280;65;48.778;9.160;2023-02-14T13:58:19;100056.97;;;9.99;62.58
141;BME280;65;48.778;9.160;2023-02-14T14:00:47;100055.06;;;10.04;63.61
141;BME280;65;48.778;9.160;2023-02-14T14:06:11;100056.19;;;9.95;63.91
141;BME280;65;48.778;9.160;2023-02-14T14:08:55;100055.81;;;10.07;63.63
141;BME280;65;48.778;9.160;2023-02-14T14:13:53;100052.38;;;10.33;63.29
141;BME280;65;48.778;9.160;2023-02-14T14:21:30;100049.41;;;12.15;57.71
141;BME280;65;48.778;9.160;2023-02-14T14:24:18;100045.72;;;14.38;50.50
141;BME280;65;48.778;9.160;2023-02-14T14:26:50;100038.84;;;16.67;44.18
141;BME280;65;48.778;9.160;2023-02-14T14:29:26;100034.28;;;18.27;40.92
141;BME280;65;48.778;9.160;2023-02-14T14:31:53;100035.50;;;18.89;38.53
141;BME280;65;48.778;9.160;2023-02-14T14:34:26;100031.91;;;19.92;35.45
141;BME280;65;48.778;9.160;2023-02-14T14:37:02;100033.97;;;20.62;33.71
141;BME280;65;48.778;9.160;2023-02-14T14:39:30;100028.63;;;20.25;34.63
141;BME280;65;48.778;9.160;2023-02-14T14:42:15;100024.19;;;19.11;36.98
141;BME280;65;48.778;9.160;2023-02-14T14:44:50;100030.66;;;19.72;34.74
141;BME280;65;48.778;9.160;2023-02-14T14:47:22;100031.03;;;20.04;33.72
141;BME280;65;48.778;9.160;2023-02-14T14:49:50;100020.91;;;19.71;34.61
141;BME280;65;48.778;9.160;2023-02-14T14:52:32;100026.78;;;19.76;35.35
141;BME280;65;48.778;9.160;2023-02-14T14:54:59;100022.81;;;19.44;35.83
141;BME280;65;48.778;9.160;2023-02-14T14:57:25;100020.56;;;19.76;34.46
141;BME280;65;48.778;9.160;2023-02-14T15:02:31;100022.56;;;18.42;38.61
141;BME280;65;48.778;9.160;2023-02-14T15:04:56;100016.19;;;18.72;37.35
141;BME280;65;48.778;9.160;2023-02-14T15:07:33;100023.88;;;18.49;38.57
141;BME280;65;48.778;9.160;2023-02-14T15:09:59;100020.81;;;18.55;38.16
141;BME280;65;48.778;9.160;2023-02-14T15:12:25;100022.53;;;18.56;37.63
141;BME280;65;48.778;9.160;2023-02-14T15:15:11;100016.06;;;18.46;39.27
141;BME280;65;48.778;9.160;2023-02-14T15:17:38;100029.38;;;18.07;39.05
141;BME280;65;48.778;9.160;2023-02-14T15:20:13;100031.78;;;17.54;40.16
141;BME280;65;48.778;9.160;2023-02-14T15:22:42;100028.72;;;16.88;40.84
141;BME280;65;48.778;9.160;2023-02-14T15:25:12;100029.22;;;16.01;44.02
141;BME280;65;48.778;9.160;2023-02-14T15:27:41;100019.94;;;16.08;43.51
141;BME280;65;48.778;9.160;2023-02-14T15:30:22;100028.69;;;15.79;44.79
141;BME280;65;48.778;9.160;2023-02-14T15:32:50;100028.75;;;15.11;45.01
141;BME280;65;48.778;9.160;2023-02-14T15:35:22;100022.97;;;15.03;45.95
141;BME280;65;48.778;9.160;2023-02-14T15:37:49;100024.81;;;15.18;46.46
141;BME280;65;48.778;9.160;2023-02-14T15:40:17;100026.09;;;14.60;47.73
141;BME280;65;48.778;9.160;2023-02-14T15:42:44;100013.19;;;14.69;47.57
141;BME280;65;48.778;9.160;2023-02-14T15:47:39;100025.94;;;12.28;53.58
141;BME280;65;48.778;9.160;2023-02-14T15:50:17;100025.44;;;11.25;56.83
141;BME280;65;48.778;9.160;2023-02-14T15:52:44;100029.50;;;10.04;62.24
141;BME280;65;48.778;9.160;2023-02-14T15:55:10;100030.03;;;9.58;65.09
141;BME280;65;48.778;9.160;2023-02-14T15:57:37;100024.22;;;9.14;66.65
141;BME280;65;48.778;9.160;2023-02-14T16:00:14;100024.56;;;8.70;70.69
141;BME280;65;48.778;9.160;2023-02-14T16:02:41;100036.75;;;8.40;71.66
141;BME280;65;48.778;9.160;2023-02-14T16:07:40;100033.50;;;7.90;75.63
141;BME280;65;48.778;9.160;2023-02-14T16:10:27;100030.13;;;7.83;76.60
141;BME280;65;48.778;9.160;2023-02-14T16:13:02;100026.19;;;7.64;77.16
141;BME280;65;48.778;9.160;2023-02-14T16:15:32;100023.16;;;7.41;78.98
141;BME280;65;48.778;9.160;2023-02-14T16:17:59;100030.53;;;7.23;80.85
141;BME280;65;48.778;9.160;2023-02-14T16:23:15;100030.50;;;6.79;83.87
141;BME280;65;48.778;9.160;2023-02-14T16:25:41;100030.63;;;6.71;84.83
141;BME280;65;48.778;9.160;2023-02-14T16:28:06;100037.75;;;6.64;84.34
141;BME280;65;48.778;9.160;2023-02-14T16:30:33;100030.16;;;6.49;86.27
141;BME280;65;48.778;9.160;2023-02-14T16:32:58;100028.66;;;6.33;87.30
141;BME280;65;48.778;9.160;2023-02-14T16:35:24;100030.59;;;6.20;88.96